createdAt,value
2023-02-17T00:01:00.944Z,17.50
2023-02-17T00:03:28.134Z,17.60
2023-02-17T00:05:55.090Z,17.50
2023-02-17T00:08:21.975Z,17.60
2023-02-17T00:10:59.945Z,17.50
2023-02-17T00:13:27.135Z,17.50
2023-02-17T00:15:54.504Z,17.40
2023-02-17T00:18:21.735Z,17.40
2023-02-17T00:20:48.617Z,17.40
2023-02-17T00:23:15.576Z,17.40
2023-02-17T00:25:42.537Z,17.50
2023-02-17T00:28:09.467Z,17.50
2023-02-17T00:30:38.918Z,17.50
2023-02-17T00:33:06.264Z,17.50
2023-02-17T00:35:33.210Z,17.60
2023-02-17T00:38:00.139Z,17.50
2023-02-17T00:40:27.066Z,17.50
2023-02-17T00:42:54.938Z,17.50
2023-02-17T00:45:22.028Z,17.50
2023-02-17T00:47:49.137Z,17.60
2023-02-17T00:50:16.085Z,17.60
2023-02-17T00:52:43.011Z,17.60
2023-02-17T00:55:09.879Z,17.60
2023-02-17T00:57:36.790Z,17.60
2023-02-17T01:00:05.941Z,17.60
2023-02-17T01:02:33.918Z,17.60
2023-02-17T01:05:00.797Z,17.60
2023-02-17T01:07:27.821Z,17.50
2023-02-17T01:09:54.806Z,17.60
2023-02-17T01:12:22.155Z,17.60
2023-02-17T01:14:49.204Z,17.50
2023-02-17T01:17:16.148Z,17.40
2023-02-17T01:19:43.118Z,17.50
2023-02-17T01:22:10.988Z,17.40
2023-02-17T01:24:39.268Z,17.50
2023-02-17T01:27:06.289Z,17.50
2023-02-17T01:29:33.177Z,17.50
2023-02-17T01:32:00.215Z,17.50
2023-02-17T01:34:27.345Z,17.40
2023-02-17T01:36:54.340Z,17.40
2023-02-17T01:39:21.253Z,17.50
2023-02-17T01:41:48.357Z,17.30
2023-02-17T01:44:23.743Z,17.20
2023-02-17T01:46:53.455Z,17.10
2023-02-17T01:49:33.075Z,17.20
2023-02-17T01:52:06.319Z,17.30
2023-02-17T01:54:44.252Z,17.30
2023-02-17T01:57:13.012Z,17.30
2023-02-17T01:59:41.529Z,17.30
2023-02-17T02:02:09.080Z,17.40
2023-02-17T02:04:39.275Z,17.40
2023-02-17T02:07:10.253Z,17.20
2023-02-17T02:09:41.121Z,17.20
2023-02-17T02:12:32.335Z,17.30
2023-02-17T02:15:02.975Z,17.30
2023-02-17T02:18:03.134Z,17.30
2023-02-17T02:20:33.014Z,17.30
2023-02-17T02:23:26.798Z,17.20
2023-02-17T02:26:11.659Z,17.10
2023-02-17T02:28:51.258Z,17.10
2023-02-17T02:31:36.894Z,17.00
2023-02-17T02:34:11.742Z,16.90
2023-02-17T02:36:46.492Z,16.90
2023-02-17T02:39:26.808Z,16.90
2023-02-17T02:42:01.374Z,16.80
2023-02-17T02:44:28.229Z,16.80
2023-02-17T02:47:22.558Z,16.80
2023-02-17T02:49:49.447Z,16.80
2023-02-17T02:52:27.260Z,16.90
2023-02-17T02:55:21.324Z,16.90
2023-02-17T02:58:03.557Z,16.90
2023-02-17T03:00:39.393Z,17.00
2023-02-17T03:03:10.491Z,17.00
2023-02-17T03:05:58.610Z,17.00
2023-02-17T03:08:32.730Z,17.00
2023-02-17T03:11:01.271Z,17.10
2023-02-17T03:13:28.322Z,17.10
2023-02-17T03:15:55.370Z,17.20
2023-02-17T03:18:22.295Z,17.10
2023-02-17T03:20:56.335Z,17.00
2023-02-17T03:23:23.270Z,17.00
2023-02-17T03:25:50.227Z,17.10
2023-02-17T03:28:17.155Z,17.10
2023-02-17T03:30:44.174Z,17.00
2023-02-17T03:33:11.036Z,17.00
2023-02-17T03:35:37.927Z,17.00
2023-02-17T03:38:04.842Z,16.90
2023-02-17T03:40:31.983Z,17.00
2023-02-17T03:42:58.951Z,17.10
2023-02-17T03:45:26.122Z,17.10
2023-02-17T03:47:53.012Z,17.10
2023-02-17T03:50:19.871Z,16.90
2023-02-17T03:52:46.732Z,16.90
2023-02-17T03:55:13.689Z,16.90
2023-02-17T03:57:40.551Z,17.00
2023-02-17T04:00:09.482Z,16.90
2023-02-17T04:02:36.536Z,17.00
2023-02-17T04:05:03.685Z,17.10
2023-02-17T04:07:30.656Z,17.10
2023-02-17T04:09:57.572Z,17.10
2023-02-17T04:12:24.506Z,17.20
2023-02-17T04:14:51.400Z,17.10
2023-02-17T04:17:18.287Z,17.10
2023-02-17T04:19:45.162Z,17.10
2023-02-17T04:22:12.047Z,17.10
2023-02-17T04:24:39.043Z,17.10
2023-02-17T04:27:06.330Z,17.10
2023-02-17T04:29:33.714Z,17.10
2023-02-17T04:32:00.652Z,16.90
2023-02-17T04:34:27.724Z,16.90
2023-02-17T04:36:54.578Z,16.90
2023-02-17T04:39:21.522Z,16.80
2023-02-17T04:41:48.510Z,16.80
2023-02-17T04:44:15.486Z,16.80
2023-02-17T04:46:42.284Z,16.90
2023-02-17T04:49:09.449Z,17.00
2023-02-17T04:51:36.344Z,17.00
2023-02-17T04:54:03.196Z,16.90
2023-02-17T04:56:30.179Z,16.90
2023-02-17T04:58:57.124Z,16.90
2023-02-17T05:01:24.110Z,16.90
2023-02-17T05:03:51.002Z,16.80
2023-02-17T05:06:17.912Z,16.80
2023-02-17T05:08:44.857Z,16.80
2023-02-17T05:11:11.750Z,16.80
2023-02-17T05:13:38.660Z,16.80
2023-02-17T05:16:05.916Z,16.90
2023-02-17T05:18:33.004Z,16.90
2023-02-17T05:20:59.847Z,17.00
2023-02-17T05:23:26.700Z,16.90
2023-02-17T05:25:53.580Z,16.70
2023-02-17T05:28:20.465Z,16.80
2023-02-17T05:30:49.450Z,16.90
2023-02-17T05:33:16.610Z,17.00
2023-02-17T05:35:43.504Z,17.00
2023-02-17T05:38:10.497Z,17.00
2023-02-17T05:40:37.334Z,16.90
2023-02-17T05:43:04.352Z,16.90
2023-02-17T05:45:31.250Z,16.90
2023-02-17T05:47:58.175Z,16.90
2023-02-17T05:50:25.087Z,16.90
2023-02-17T05:52:52.241Z,16.90
2023-02-17T05:55:19.175Z,16.90
2023-02-17T05:57:46.061Z,17.00
2023-02-17T06:00:13.695Z,16.90
2023-02-17T06:02:40.974Z,16.80
2023-02-17T06:05:08.917Z,16.80
2023-02-17T06:07:35.827Z,16.90
2023-02-17T06:10:03.068Z,16.90
2023-02-17T06:12:29.994Z,16.80
2023-02-17T06:14:56.916Z,16.90
2023-02-17T06:17:23.814Z,16.90
2023-02-17T06:19:50.777Z,17.00
2023-02-17T06:22:18.682Z,17.00
2023-02-17T06:24:45.620Z,17.00
2023-02-17T06:27:12.582Z,17.00
2023-02-17T06:29:39.481Z,16.80
2023-02-17T06:32:06.513Z,16.80
2023-02-17T06:34:33.401Z,16.90
2023-02-17T06:37:00.667Z,16.80
2023-02-17T06:39:27.609Z,16.90
2023-02-17T06:41:54.544Z,17.00
2023-02-17T06:44:21.462Z,17.00
2023-02-17T06:46:48.343Z,16.90
2023-02-17T06:49:15.554Z,16.80
2023-02-17T06:51:42.436Z,16.80
2023-02-17T06:54:09.547Z,16.70
2023-02-17T06:56:36.526Z,16.80
2023-02-17T06:59:03.727Z,16.80
2023-02-17T07:01:30.824Z,16.70
2023-02-17T07:04:00.256Z,16.70
2023-02-17T07:06:27.261Z,16.70
2023-02-17T07:08:57.133Z,16.80
2023-02-17T07:11:24.139Z,16.80
2023-02-17T07:13:51.163Z,16.80
2023-02-17T07:16:18.078Z,16.90
2023-02-17T07:18:45.242Z,16.80
2023-02-17T07:21:12.352Z,16.90
2023-02-17T07:23:39.732Z,16.80
2023-02-17T07:26:09.282Z,16.90
2023-02-17T07:28:37.139Z,16.80
2023-02-17T07:31:11.931Z,16.90
2023-02-17T07:33:39.268Z,16.80
2023-02-17T07:36:15.076Z,16.80
2023-02-17T07:38:42.893Z,16.90
2023-02-17T07:41:12.881Z,16.90
2023-02-17T07:43:39.902Z,17.00
2023-02-17T07:46:08.313Z,17.00
2023-02-17T07:48:35.707Z,17.00
2023-02-17T07:51:08.106Z,17.10
2023-02-17T07:53:35.990Z,17.10
2023-02-17T07:56:04.978Z,17.10
2023-02-17T07:58:37.222Z,17.10
2023-02-17T08:01:13.452Z,17.20
2023-02-17T08:03:40.722Z,17.20
2023-02-17T08:06:18.226Z,17.20
2023-02-17T08:09:03.435Z,17.10
2023-02-17T08:11:50.153Z,17.10
2023-02-17T08:14:17.877Z,17.00
2023-02-17T08:16:44.802Z,17.00
2023-02-17T08:19:11.833Z,17.10
2023-02-17T08:21:38.814Z,17.20
2023-02-17T08:24:06.099Z,17.20
2023-02-17T08:26:33.008Z,17.10
2023-02-17T08:29:00.018Z,17.20
2023-02-17T08:31:32.763Z,17.30
2023-02-17T08:34:05.669Z,17.20
2023-02-17T08:36:32.704Z,17.30
2023-02-17T08:39:01.562Z,17.20
2023-02-17T08:41:34.782Z,17.30
2023-02-17T08:44:03.759Z,17.40
2023-02-17T08:46:30.939Z,17.40
2023-02-17T08:48:57.970Z,17.40
2023-02-17T08:51:26.317Z,17.40
2023-02-17T08:53:56.140Z,17.40
2023-02-17T08:56:24.041Z,17.40
2023-02-17T08:58:51.909Z,17.50
2023-02-17T09:01:19.153Z,17.40
2023-02-17T09:03:47.964Z,17.40
2023-02-17T09:06:15.858Z,17.50
2023-02-17T09:08:43.993Z,17.60
2023-02-17T09:11:11.144Z,17.50
2023-02-17T09:13:38.180Z,17.60
2023-02-17T09:16:08.890Z,17.60
2023-02-17T09:18:36.219Z,17.60
2023-02-17T09:21:12.506Z,17.70
2023-02-17T09:23:40.621Z,17.90
2023-02-17T09:26:10.715Z,17.90
2023-02-17T09:28:39.005Z,17.90
2023-02-17T09:31:18.693Z,17.90
2023-02-17T09:33:47.920Z,18.00
2023-02-17T09:36:18.273Z,18.10
2023-02-17T09:38:45.178Z,18.10
2023-02-17T09:41:23.014Z,18.10
2023-02-17T09:43:51.779Z,18.20
2023-02-17T09:46:27.574Z,18.20
2023-02-17T09:48:59.323Z,18.40
2023-02-17T09:51:55.044Z,18.50
2023-02-17T09:54:27.791Z,18.60
2023-02-17T09:56:56.975Z,18.60
2023-02-17T09:59:32.396Z,18.70
2023-02-17T10:02:01.353Z,18.90
2023-02-17T10:04:37.602Z,18.80
2023-02-17T10:07:17.848Z,18.70
2023-02-17T10:09:55.825Z,18.80
2023-02-17T10:12:28.271Z,18.80
2023-02-17T10:15:17.921Z,18.90
2023-02-17T10:17:57.181Z,18.90
2023-02-17T10:20:33.045Z,18.80
2023-02-17T10:23:07.827Z,18.90
2023-02-17T10:25:53.324Z,18.80
2023-02-17T10:28:34.622Z,18.80
2023-02-17T10:31:11.522Z,18.80
2023-02-17T10:33:43.953Z,18.80
2023-02-17T10:36:22.798Z,18.80
2023-02-17T10:39:08.983Z,18.90
2023-02-17T10:41:38.790Z,18.90
2023-02-17T10:44:16.707Z,19.00
2023-02-17T10:46:48.539Z,19.00
2023-02-17T10:49:36.042Z,18.90
2023-02-17T10:52:17.208Z,18.80
2023-02-17T10:54:59.953Z,18.90
2023-02-17T10:57:33.016Z,18.70
2023-02-17T10:59:59.985Z,18.80
2023-02-17T11:02:42.567Z,18.90
2023-02-17T11:05:21.674Z,19.00
2023-02-17T11:07:48.897Z,19.00
2023-02-17T11:10:23.170Z,19.00
2023-02-17T11:12:50.914Z,19.10
2023-02-17T11:15:24.562Z,19.10
2023-02-17T11:17:52.036Z,19.20
2023-02-17T11:20:21.905Z,19.30
2023-02-17T11:23:14.967Z,19.20
2023-02-17T11:25:43.568Z,19.40
2023-02-17T11:28:15.088Z,19.50
2023-02-17T11:30:51.109Z,19.30
2023-02-17T11:33:37.965Z,19.40
2023-02-17T11:36:08.024Z,19.40
2023-02-17T11:38:44.903Z,19.30
2023-02-17T11:41:12.341Z,19.40
2023-02-17T11:43:50.638Z,19.40
2023-02-17T11:46:32.370Z,19.40
2023-02-17T11:49:23.345Z,19.40
2023-02-17T11:52:14.830Z,19.40
2023-02-17T11:55:02.830Z,19.40
2023-02-17T11:57:41.507Z,19.40
2023-02-17T12:00:22.764Z,19.60
2023-02-17T12:03:01.714Z,19.60
2023-02-17T12:05:54.783Z,19.40
2023-02-17T12:08:52.377Z,19.20
2023-02-17T12:11:49.526Z,18.80
2023-02-17T12:14:39.413Z,19.10
2023-02-17T12:17:21.280Z,19.00
2023-02-17T12:20:09.826Z,18.90
2023-02-17T12:22:53.289Z,19.10
2023-02-17T12:25:29.089Z,19.30
2023-02-17T12:28:34.235Z,19.40
2023-02-17T12:31:05.100Z,19.30
2023-02-17T12:33:41.234Z,19.20
2023-02-17T12:36:12.784Z,19.10
2023-02-17T12:38:46.526Z,19.10
2023-02-17T12:41:20.076Z,19.00
2023-02-17T12:43:57.079Z,19.20
2023-02-17T12:46:42.306Z,19.20
2023-02-17T12:49:21.730Z,19.30
2023-02-17T12:52:05.493Z,19.40
2023-02-17T12:54:32.335Z,19.00
2023-02-17T12:57:12.673Z,19.10
2023-02-17T12:59:40.790Z,19.20
2023-02-17T13:02:12.748Z,19.10
2023-02-17T13:04:42.011Z,18.90
2023-02-17T13:07:27.693Z,19.10
2023-02-17T13:09:56.952Z,19.10
2023-02-17T13:12:23.915Z,19.30
2023-02-17T13:14:54.782Z,19.20
2023-02-17T13:17:33.659Z,19.10
2023-02-17T13:20:09.853Z,19.20
2023-02-17T13:22:38.661Z,19.20
2023-02-17T13:25:06.915Z,19.10
2023-02-17T13:27:39.760Z,19.00
2023-02-17T13:30:22.189Z,18.70
2023-02-17T13:33:04.904Z,18.70
2023-02-17T13:35:36.970Z,18.90
2023-02-17T13:38:04.408Z,19.00
2023-02-17T13:40:36.416Z,19.00
2023-02-17T13:43:17.494Z,18.90
2023-02-17T13:46:01.705Z,18.80
2023-02-17T13:48:31.659Z,18.60
2023-02-17T13:51:01.367Z,18.80
2023-02-17T13:53:38.063Z,18.80
2023-02-17T13:56:09.518Z,19.10
2023-02-17T13:58:39.273Z,19.20
2023-02-17T14:01:13.189Z,19.20
2023-02-17T14:03:40.069Z,19.00
2023-02-17T14:06:12.381Z,19.00
2023-02-17T14:08:42.122Z,19.00
2023-02-17T14:11:13.671Z,18.90
2023-02-17T14:13:45.247Z,18.80
2023-02-17T14:16:44.167Z,19.00
2023-02-17T14:19:15.639Z,18.90
2023-02-17T14:21:57.256Z,19.20
2023-02-17T14:24:29.130Z,19.20
2023-02-17T14:27:02.378Z,19.20
2023-02-17T14:29:50.306Z,19.10
2023-02-17T14:32:35.181Z,19.00
2023-02-17T14:35:13.085Z,19.00
2023-02-17T14:37:41.560Z,18.90
2023-02-17T14:40:25.001Z,18.80
2023-02-17T14:42:52.070Z,18.50
2023-02-17T14:45:19.616Z,18.50
2023-02-17T14:47:47.093Z,18.40
2023-02-17T14:50:16.214Z,18.40
2023-02-17T14:52:47.540Z,18.50
2023-02-17T14:55:49.759Z,18.40
2023-02-17T14:58:21.426Z,18.50
2023-02-17T15:00:49.617Z,18.50
2023-02-17T15:03:17.016Z,18.50
2023-02-17T15:05:44.312Z,18.40
2023-02-17T15:08:21.307Z,18.20
2023-02-17T15:10:49.104Z,18.30
2023-02-17T15:13:19.033Z,18.40
2023-02-17T15:15:47.856Z,18.30
2023-02-17T15:18:17.167Z,18.40
2023-02-17T15:20:46.384Z,18.30
2023-02-17T15:23:16.555Z,18.30
2023-02-17T15:25:44.029Z,18.30
2023-02-17T15:28:19.386Z,18.30
2023-02-17T15:30:51.776Z,18.30
2023-02-17T15:33:20.303Z,18.30
2023-02-17T15:35:50.613Z,18.40
2023-02-17T15:38:17.602Z,18.40
2023-02-17T15:40:44.547Z,18.30
2023-02-17T15:43:21.892Z,18.40
2023-02-17T15:45:49.088Z,18.40
2023-02-17T15:48:25.826Z,18.40
2023-02-17T15:50:53.301Z,18.50
2023-02-17T15:53:20.186Z,18.40
2023-02-17T15:55:47.871Z,18.50
2023-02-17T15:58:17.191Z,18.60
2023-02-17T16:00:48.682Z,18.60
2023-02-17T16:03:15.902Z,18.40
2023-02-17T16:05:43.219Z,18.50
2023-02-17T16:08:10.108Z,18.40
2023-02-17T16:10:39.549Z,18.30
2023-02-17T16:13:08.363Z,18.20
2023-02-17T16:15:37.541Z,18.10
2023-02-17T16:18:04.436Z,18.10
2023-02-17T16:21:05.860Z,18.20
2023-02-17T16:23:32.869Z,18.10
2023-02-17T16:26:01.765Z,18.20
2023-02-17T16:28:33.002Z,18.00
2023-02-17T16:30:59.902Z,17.90
2023-02-17T16:33:26.785Z,17.70
2023-02-17T16:35:53.744Z,17.80
2023-02-17T16:38:23.595Z,17.80
2023-02-17T16:40:52.763Z,17.80
2023-02-17T16:43:25.366Z,17.70
2023-02-17T16:45:57.620Z,17.80
2023-02-17T16:48:27.619Z,17.90
2023-02-17T16:50:54.991Z,17.80
2023-02-17T16:53:22.217Z,17.80
2023-02-17T16:55:49.646Z,17.80
2023-02-17T16:58:24.964Z,18.00
2023-02-17T17:00:54.058Z,18.00
2023-02-17T17:03:24.948Z,18.10
2023-02-17T17:05:52.664Z,18.00
2023-02-17T17:08:21.757Z,17.90
2023-02-17T17:10:49.471Z,17.90
2023-02-17T17:13:16.568Z,17.90
2023-02-17T17:15:45.164Z,18.00
2023-02-17T17:18:20.966Z,18.00
2023-02-17T17:20:48.303Z,18.00
2023-02-17T17:23:15.526Z,17.90
2023-02-17T17:25:48.590Z,17.70
2023-02-17T17:28:19.972Z,17.80
2023-02-17T17:30:47.543Z,17.70
2023-02-17T17:33:14.537Z,17.70
2023-02-17T17:35:41.390Z,17.70
2023-02-17T17:38:09.766Z,17.70
2023-02-17T17:40:48.348Z,17.70
2023-02-17T17:43:20.487Z,17.80
2023-02-17T17:45:48.793Z,17.80
2023-02-17T17:48:17.626Z,17.80
2023-02-17T17:50:44.897Z,17.90
2023-02-17T17:53:11.867Z,17.80
2023-02-17T17:55:38.819Z,17.70
2023-02-17T17:58:05.774Z,17.80
2023-02-17T18:00:32.752Z,17.70
2023-02-17T18:02:59.781Z,17.70
2023-02-17T18:05:26.929Z,17.70
2023-02-17T18:07:53.872Z,17.60
2023-02-17T18:10:20.846Z,17.70
2023-02-17T18:12:48.576Z,17.80
2023-02-17T18:15:17.270Z,17.90
2023-02-17T18:17:45.066Z,17.90
2023-02-17T18:20:12.887Z,17.80
2023-02-17T18:22:40.188Z,17.70
2023-02-17T18:25:07.600Z,17.70
2023-02-17T18:27:42.800Z,17.70
2023-02-17T18:30:12.494Z,17.70
2023-02-17T18:32:39.574Z,17.80
2023-02-17T18:35:06.754Z,17.70
2023-02-17T18:37:34.078Z,17.70
2023-02-17T18:40:01.774Z,17.70
2023-02-17T18:42:28.642Z,17.80
2023-02-17T18:44:56.760Z,17.70
2023-02-17T18:47:23.952Z,17.80
2023-02-17T18:49:51.941Z,17.80
2023-02-17T18:52:18.793Z,17.80
2023-02-17T18:54:45.821Z,17.90
2023-02-17T18:57:12.702Z,17.90
2023-02-17T18:59:39.610Z,17.90
2023-02-17T19:02:08.603Z,17.90
2023-02-17T19:04:35.909Z,17.90
2023-02-17T19:07:06.145Z,17.80
2023-02-17T19:09:38.289Z,17.90
2023-02-17T19:12:09.843Z,17.80
2023-02-17T19:14:37.648Z,17.90
2023-02-17T19:17:04.563Z,17.90
2023-02-17T19:19:31.716Z,17.90
2023-02-17T19:21:58.724Z,17.80
2023-02-17T19:24:25.600Z,17.80
2023-02-17T19:26:54.609Z,17.80
2023-02-17T19:29:22.883Z,17.90
2023-02-17T19:31:49.986Z,17.80
2023-02-17T19:34:19.844Z,17.80
2023-02-17T19:36:47.042Z,17.80
2023-02-17T19:39:13.872Z,17.80
2023-02-17T19:41:40.864Z,17.80
2023-02-17T19:44:08.039Z,17.80
2023-02-17T19:46:35.048Z,17.80
2023-02-17T19:49:02.129Z,17.60
2023-02-17T19:51:29.109Z,17.70
2023-02-17T19:53:58.041Z,17.70
2023-02-17T19:56:27.233Z,17.60
2023-02-17T19:58:54.602Z,17.60
2023-02-17T20:01:25.265Z,17.60
2023-02-17T20:03:54.590Z,17.80
2023-02-17T20:06:33.535Z,17.80
2023-02-17T20:09:09.760Z,17.70
2023-02-17T20:11:36.904Z,17.60
2023-02-17T20:14:04.287Z,17.60
2023-02-17T20:16:31.569Z,17.60
2023-02-17T20:19:01.573Z,17.60
2023-02-17T20:21:30.633Z,17.70
2023-02-17T20:23:58.296Z,17.80
2023-02-17T20:26:28.655Z,17.90
2023-02-17T20:28:58.581Z,17.90
2023-02-17T20:31:26.306Z,17.90
2023-02-17T20:33:53.636Z,17.90
2023-02-17T20:36:22.258Z,17.90
2023-02-17T20:38:50.053Z,17.90
2023-02-17T20:41:19.131Z,17.90
2023-02-17T20:43:46.404Z,17.90
2023-02-17T20:46:26.526Z,17.80
2023-02-17T20:48:54.121Z,17.70
2023-02-17T20:51:21.435Z,17.60
2023-02-17T20:53:48.560Z,17.60
2023-02-17T20:56:18.594Z,17.60
2023-02-17T20:58:46.118Z,17.60
2023-02-17T21:01:13.270Z,17.70
2023-02-17T21:03:40.379Z,17.70
2023-02-17T21:06:18.644Z,17.70
2023-02-17T21:08:45.742Z,17.70
2023-02-17T21:11:12.663Z,17.70
2023-02-17T21:13:39.564Z,17.70
2023-02-17T21:16:07.021Z,17.70
2023-02-17T21:18:35.602Z,17.80
2023-02-17T21:21:02.425Z,17.80
2023-02-17T21:23:29.332Z,17.70
2023-02-17T21:25:56.217Z,17.70
2023-02-17T21:28:23.122Z,17.70
2023-02-17T21:30:50.017Z,17.80
2023-02-17T21:33:17.013Z,17.80
2023-02-17T21:35:43.979Z,17.80
2023-02-17T21:38:12.208Z,17.80
2023-02-17T21:40:39.072Z,17.80
2023-02-17T21:43:24.355Z,17.70
2023-02-17T21:45:51.279Z,17.80
2023-02-17T21:48:18.342Z,17.70
2023-02-17T21:50:45.189Z,17.70
2023-02-17T21:53:12.211Z,17.80
2023-02-17T21:55:39.171Z,17.80
2023-02-17T21:58:06.010Z,17.80
2023-02-17T22:00:32.863Z,17.80
2023-02-17T22:02:59.811Z,17.80
2023-02-17T22:05:31.161Z,17.70
2023-02-17T22:07:57.989Z,17.60
2023-02-17T22:10:24.815Z,17.60
2023-02-17T22:12:52.982Z,17.70
2023-02-17T22:15:20.024Z,17.60
2023-02-17T22:17:48.027Z,17.70
2023-02-17T22:20:15.500Z,17.70
2023-02-17T22:22:42.347Z,17.70
2023-02-17T22:25:09.261Z,17.60
2023-02-17T22:27:36.082Z,17.50
2023-02-17T22:30:03.675Z,17.60
2023-02-17T22:32:30.602Z,17.60
2023-02-17T22:34:57.549Z,17.60
2023-02-17T22:37:24.528Z,17.60
2023-02-17T22:39:57.600Z,17.50
2023-02-17T22:42:24.985Z,17.70
2023-02-17T22:44:51.980Z,17.60
2023-02-17T22:47:18.959Z,17.60
2023-02-17T22:49:45.933Z,17.60
2023-02-17T22:52:13.035Z,17.40
2023-02-17T22:54:41.032Z,17.50
2023-02-17T22:57:08.226Z,17.40
2023-02-17T22:59:35.129Z,17.50
2023-02-17T23:02:02.077Z,17.50
2023-02-17T23:04:29.075Z,17.60
2023-02-17T23:06:56.049Z,17.60
2023-02-17T23:09:23.208Z,17.70
2023-02-17T23:11:50.079Z,17.50
2023-02-17T23:14:32.963Z,17.50
2023-02-17T23:17:03.378Z,17.50
2023-02-17T23:19:30.680Z,17.50
2023-02-17T23:22:00.761Z,17.50
2023-02-17T23:24:28.062Z,17.50
2023-02-17T23:26:57.148Z,17.50
2023-02-17T23:29:24.149Z,17.50
2023-02-17T23:31:51.231Z,17.50
2023-02-17T23:34:18.467Z,17.60
2023-02-17T23:36:47.074Z,17.50
2023-02-17T23:39:15.928Z,17.50
2023-02-17T23:41:44.064Z,17.40
2023-02-17T23:44:13.896Z,17.50
2023-02-17T23:46:41.882Z,17.50
2023-02-17T23:49:09.241Z,17.50
2023-02-17T23:51:36.110Z,17.50
2023-02-17T23:54:03.008Z,17.40
2023-02-17T23:56:32.604Z,17.50
2023-02-17T23:58:59.904Z,17.50
